Time;durP1;ratioP1;P1;durP2;ratioP2;P2;SDS_P1;SDS_P2;PMS_P1;PMS_P2;Temp;Humidity;BMP_temperature;BMP_pressure;BME280_temperature;BME280_humidity;BME280_pressure;Samples;Min_cycle;Max_cycle;Signal;HPM_P1;HPM_P2
2022/07/28 00:01:41;;;;;;;3.85;3.45;;;17.10;99.90;;;;;;5231959;28;20024;-61
2022/07/28 00:04:15;;;;;;;4.13;3.70;;;17.10;99.90;;;;;;5236616;28;20038;-61
2022/07/28 00:06:47;;;;;;;4.03;2.90;;;17.10;99.90;;;;;;5224829;28;20058;-61
2022/07/28 00:09:20;;;;;;;3.50;3.20;;;17.10;99.90;;;;;;5233462;28;20028;-61
2022/07/28 00:11:58;;;;;;;5.03;3.47;;;17.10;99.90;;;;;;5228336;28;20508;-61
2022/07/28 00:14:34;;;;;;;4.20;3.25;;;17.10;99.90;;;;;;5235492;28;20369;-61
2022/07/28 00:17:07;;;;;;;5.03;3.13;;;17.00;99.90;;;;;;5235020;28;20020;-63
2022/07/28 00:19:41;;;;;;;6.03;3.67;;;17.00;99.90;;;;;;5236588;28;20036;-63
2022/07/28 00:22:12;;;;;;;6.90;3.20;;;17.00;99.90;;;;;;5236867;28;20201;-61
2022/07/28 00:24:43;;;;;;;3.63;3.17;;;17.00;99.90;;;;;;5234822;28;20028;-62
2022/07/28 00:27:23;;;;;;;3.30;2.88;;;17.00;99.90;;;;;;5234994;28;20327;-61
2022/07/28 00:29:54;;;;;;;6.97;2.95;;;17.00;99.90;;;;;;5236286;28;20087;-61
2022/07/28 00:32:26;;;;;;;7.10;3.35;;;17.00;99.90;;;;;;5234695;28;20370;-62
2022/07/28 00:34:59;;;;;;;3.95;3.25;;;17.00;99.90;;;;;;5236189;28;20205;-62
2022/07/28 00:37:33;;;;;;;3.43;3.03;;;17.00;99.90;;;;;;5234765;28;20087;-62
2022/07/28 00:40:05;;;;;;;5.35;3.22;;;17.00;99.90;;;;;;5228318;28;20024;-62
2022/07/28 00:42:38;;;;;;;3.00;2.42;;;17.00;99.90;;;;;;5237555;28;20025;-62
2022/07/28 00:45:10;;;;;;;3.67;3.22;;;17.00;99.90;;;;;;5236064;28;20314;-62
2022/07/28 00:47:41;;;;;;;4.43;2.67;;;17.00;99.90;;;;;;5217596;28;20047;-62
2022/07/28 00:50:14;;;;;;;5.00;2.72;;;17.00;99.90;;;;;;5238619;28;20025;-62
2022/07/28 00:52:46;;;;;;;3.22;2.67;;;16.90;99.90;;;;;;5218637;28;20034;-62
2022/07/28 00:55:18;;;;;;;4.05;3.75;;;16.90;99.90;;;;;;5235893;28;20021;-62
2022/07/28 00:57:54;;;;;;;6.88;3.47;;;16.90;99.90;;;;;;5237208;28;20095;-62
2022/07/28 01:00:29;;;;;;;3.60;2.85;;;16.80;99.90;;;;;;5236608;28;20028;-61
2022/07/28 01:03:04;;;;;;;6.70;3.33;;;16.80;99.90;;;;;;5236127;28;20028;-61
2022/07/28 01:05:50;;;;;;;3.67;3.20;;;16.80;99.90;;;;;;5224347;28;20209;-61
2022/07/28 01:08:35;;;;;;;3.67;3.05;;;16.70;99.90;;;;;;5233848;28;20013;-61
2022/07/28 01:11:44;;;;;;;3.20;2.70;;;16.70;99.90;;;;;;5232354;28;20298;-62
2022/07/28 01:14:35;;;;;;;4.60;3.17;;;16.70;99.90;;;;;;5222305;28;20032;-62
2022/07/28 01:17:33;;;;;;;3.08;2.75;;;16.70;99.90;;;;;;5235631;28;20063;-61
2022/07/28 01:20:14;;;;;;;3.78;2.65;;;16.60;99.90;;;;;;5234470;28;20023;-63
2022/07/28 01:23:11;;;;;;;3.35;2.58;;;16.60;99.90;;;;;;5235646;28;20202;-61
2022/07/28 01:25:56;;;;;;;2.40;2.10;;;16.70;99.90;;;;;;5170933;28;20038;-61
2022/07/28 01:29:05;;;;;;;3.97;2.50;;;16.70;99.90;;;;;;5170379;28;20263;-62
2022/07/28 01:31:50;;;;;;;3.50;2.38;;;16.70;99.90;;;;;;5233461;28;20029;-61
2022/07/28 01:34:28;;;;;;;;;;;16.70;99.90;;;;;;5255187;28;20268;-62
2022/07/28 01:37:09;;;;;;;2.90;2.60;;;16.60;99.90;;;;;;5240679;28;20226;-62
2022/07/28 01:39:42;;;;;;;2.55;2.28;;;16.60;99.90;;;;;;5235564;28;20214;-63
2022/07/28 01:42:18;;;;;;;4.88;2.30;;;16.60;99.90;;;;;;5234240;28;20028;-61
2022/07/28 01:44:54;;;;;;;3.30;2.35;;;16.50;99.90;;;;;;5233769;28;20019;-61
2022/07/28 01:47:32;;;;;;;3.50;2.38;;;16.60;99.90;;;;;;5235171;28;20051;-61
2022/07/28 01:50:07;;;;;;;3.00;2.70;;;16.60;99.90;;;;;;5227984;28;20283;-62
2022/07/28 01:52:40;;;;;;;;;;;16.60;99.90;;;;;;5225425;28;20032;-61
2022/07/28 01:55:13;;;;;;;2.60;2.15;;;16.60;99.90;;;;;;5233082;28;19900;-61
2022/07/28 01:57:46;;;;;;;3.25;2.22;;;16.70;99.90;;;;;;5233611;28;20210;-61
2022/07/28 02:00:20;;;;;;;7.32;2.80;;;16.60;99.90;;;;;;5238169;28;20259;-63
2022/07/28 02:02:55;;;;;;;3.60;2.72;;;16.60;99.90;;;;;;5237880;28;20300;-61
2022/07/28 02:05:31;;;;;;;2.53;2.33;;;16.60;99.90;;;;;;5219768;28;20244;-61
2022/07/28 02:08:04;;;;;;;3.92;2.40;;;16.60;99.90;;;;;;5239004;28;20332;-61
2022/07/28 02:10:41;;;;;;;4.70;2.40;;;16.60;99.90;;;;;;5236373;28;20032;-61
2022/07/28 02:13:18;;;;;;;2.60;2.40;;;16.60;99.90;;;;;;5226915;28;20043;-61
2022/07/28 02:15:49;;;;;;;2.97;2.28;;;16.60;99.90;;;;;;5217194;28;20315;-61
2022/07/28 02:18:24;;;;;;;3.72;2.78;;;16.60;99.90;;;;;;5237798;28;20248;-61
2022/07/28 02:20:59;;;;;;;3.97;2.60;;;16.60;99.90;;;;;;5237831;28;20214;-61
2022/07/28 02:23:35;;;;;;;2.75;2.50;;;16.60;99.90;;;;;;5236744;28;20027;-63
2022/07/28 02:26:13;;;;;;;2.60;2.15;;;16.60;99.90;;;;;;5236719;28;20038;-61
2022/07/28 02:28:50;;;;;;;3.47;2.53;;;16.50;99.90;;;;;;5236695;28;20313;-62
2022/07/28 02:32:04;;;;;;;2.60;2.40;;;16.50;99.90;;;;;;5252788;28;20033;-62
2022/07/28 02:34:37;;;;;;;3.50;2.45;;;16.50;99.90;;;;;;5232381;28;20032;-62
2022/07/28 02:37:15;;;;;;;2.40;2.20;;;16.50;99.90;;;;;;5233924;28;20039;-61
2022/07/28 02:39:55;;;;;;;3.80;2.38;;;16.50;99.90;;;;;;5238175;28;20027;-62
2022/07/28 02:42:31;;;;;;;3.35;2.72;;;16.40;99.90;;;;;;5237702;28;20020;-63
2022/07/28 02:45:07;;;;;;;2.90;2.50;;;16.40;99.90;;;;;;5239828;28;20031;-63
2022/07/28 02:47:50;;;;;;;2.42;2.22;;;16.30;99.90;;;;;;5242488;28;20032;-62
2022/07/28 02:50:27;;;;;;;5.32;3.05;;;16.20;99.90;;;;;;5251592;28;20153;-62
2022/07/28 02:53:03;;;;;;;2.40;2.20;;;16.30;99.90;;;;;;5237178;28;20228;-62
2022/07/28 02:55:38;;;;;;;2.60;2.25;;;16.30;99.90;;;;;;5238856;28;20024;-62
2022/07/28 02:58:10;;;;;;;;;;;16.40;99.90;;;;;;5240301;28;20017;-63
2022/07/28 03:00:41;;;;;;;4.18;2.65;;;16.40;99.90;;;;;;5237397;28;19919;-63
2022/07/28 03:03:16;;;;;;;3.13;2.45;;;16.30;99.90;;;;;;5235718;28;20020;-62
2022/07/28 03:05:48;;;;;;;2.90;2.40;;;16.30;99.90;;;;;;5227934;28;20254;-62
2022/07/28 03:08:20;;;;;;;3.00;2.55;;;16.30;99.90;;;;;;5239536;28;20490;-63
2022/07/28 03:11:10;;;;;;;5.70;2.33;;;16.20;99.90;;;;;;5238909;28;20038;-63
2022/07/28 03:13:42;;;;;;;4.70;2.60;;;16.20;99.90;;;;;;5238442;28;20269;-61
2022/07/28 03:16:13;;;;;;;5.60;2.75;;;16.10;99.90;;;;;;5220112;28;20201;-62
2022/07/28 03:18:47;;;;;;;3.05;2.65;;;16.10;99.90;;;;;;5237807;28;20208;-62
2022/07/28 03:21:18;;;;;;;3.15;2.78;;;16.10;99.90;;;;;;5240972;28;20386;-63
2022/07/28 03:23:53;;;;;;;5.78;2.63;;;16.00;99.90;;;;;;5238414;28;20286;-62
2022/07/28 03:26:36;;;;;;;2.55;2.35;;;16.00;99.90;;;;;;5239558;28;20024;-62
2022/07/28 03:29:09;;;;;;;3.38;2.60;;;16.00;99.90;;;;;;5237811;28;20020;-62
2022/07/28 03:31:48;;;;;;;2.80;2.60;;;16.00;99.90;;;;;;5235003;28;20233;-62
2022/07/28 03:34:22;;;;;;;2.50;2.25;;;16.00;99.90;;;;;;5240929;28;20024;-62
2022/07/28 03:37:01;;;;;;;2.97;2.70;;;16.00;99.90;;;;;;5236889;28;20032;-61
2022/07/28 03:39:44;;;;;;;2.22;1.92;;;16.00;99.90;;;;;;5235889;28;20222;-62
2022/07/28 03:42:18;;;;;;;2.63;2.40;;;16.00;99.90;;;;;;5238878;28;20029;-62
2022/07/28 03:44:52;;;;;;;2.70;2.05;;;16.00;99.90;;;;;;5236019;28;20042;-61
2022/07/28 03:47:24;;;;;;;;;;;16.00;99.90;;;;;;5237715;28;20032;-62
2022/07/28 03:49:57;;;;;;;2.92;2.33;;;16.00;99.90;;;;;;5237794;28;19900;-61
2022/07/28 03:52:28;;;;;;;3.42;2.42;;;16.10;99.90;;;;;;5236484;28;20023;-62
2022/07/28 03:54:59;;;;;;;9.88;2.90;;;16.10;99.90;;;;;;5237966;28;20032;-62
2022/07/28 03:57:31;;;;;;;3.13;2.45;;;16.10;99.90;;;;;;5237135;28;20051;-62
2022/07/28 04:00:03;;;;;;;3.97;2.53;;;16.10;99.90;;;;;;5238082;28;20043;-62
2022/07/28 04:02:34;;;;;;;2.55;2.30;;;16.30;99.90;;;;;;5236855;28;20026;-62
2022/07/28 04:05:06;;;;;;;4.13;2.35;;;16.30;99.90;;;;;;5234816;28;20419;-61
2022/07/28 04:07:39;;;;;;;5.72;1.98;;;16.30;99.90;;;;;;5257932;28;20285;-62
2022/07/28 04:10:15;;;;;;;2.72;2.13;;;16.30;99.90;;;;;;5257202;28;20046;-62
2022/07/28 04:12:51;;;;;;;4.80;2.30;;;16.40;99.90;;;;;;5236191;28;20032;-62
2022/07/28 04:15:26;;;;;;;3.65;2.50;;;16.50;99.90;;;;;;5255548;28;20030;-62
2022/07/28 04:17:57;;;;;;;2.38;2.15;;;16.50;99.90;;;;;;5254263;28;20229;-61
2022/07/28 04:20:33;;;;;;;4.78;2.95;;;16.50;99.90;;;;;;5240336;28;20055;-62
2022/07/28 04:23:04;;;;;;;2.75;2.35;;;16.60;99.90;;;;;;5236996;28;20021;-62
2022/07/28 04:25:38;;;;;;;2.22;2.03;;;16.70;99.90;;;;;;5219680;28;20035;-62
2022/07/28 04:28:15;;;;;;;3.85;2.78;;;16.70;99.90;;;;;;5234825;28;20170;-62
2022/07/28 04:30:48;;;;;;;2.70;2.50;;;16.90;99.90;;;;;;5218704;28;20028;-62
2022/07/28 04:33:22;;;;;;;3.65;2.75;;;17.00;99.90;;;;;;5235663;28;20032;-62
2022/07/28 04:35:53;;;;;;;6.85;2.60;;;17.00;99.90;;;;;;5218614;28;20025;-61
2022/07/28 04:38:24;;;;;;;2.47;2.03;;;17.20;99.90;;;;;;5236543;28;20027;-62
2022/07/28 04:40:56;;;;;;;7.47;2.28;;;17.30;99.90;;;;;;5235952;28;20034;-62
2022/07/28 04:43:30;;;;;;;3.47;2.00;;;17.30;99.90;;;;;;5218058;28;20035;-61
2022/07/28 04:46:01;;;;;;;2.65;2.38;;;17.20;99.90;;;;;;5202107;28;20254;-61
2022/07/28 04:48:32;;;;;;;2.47;2.20;;;17.10;99.90;;;;;;5217058;28;20321;-61
2022/07/28 04:51:06;;;;;;;4.50;2.47;;;17.10;99.90;;;;;;5235753;28;20216;-61
2022/07/28 04:53:40;;;;;;;4.18;2.47;;;17.20;99.90;;;;;;5239168;28;20023;-62
2022/07/28 04:56:14;;;;;;;4.47;3.13;;;17.20;99.90;;;;;;5235750;28;20032;-61
2022/07/28 04:58:45;;;;;;;7.93;2.10;;;17.20;99.90;;;;;;5245999;28;20028;-62
2022/07/28 05:01:16;;;;;;;5.00;2.78;;;17.30;99.90;;;;;;5235149;28;20269;-62
2022/07/28 05:03:50;;;;;;;2.35;1.98;;;17.40;99.90;;;;;;5235251;28;20028;-61
2022/07/28 05:06:21;;;;;;;5.43;2.80;;;17.50;99.90;;;;;;5223624;28;20051;-62
2022/07/28 05:08:52;;;;;;;2.67;1.90;;;17.60;99.90;;;;;;5217120;28;20024;-62
2022/07/28 05:11:24;;;;;;;2.30;2.10;;;17.60;99.90;;;;;;5221747;28;20147;-62
2022/07/28 05:13:57;;;;;;;5.32;2.22;;;17.70;99.90;;;;;;5214573;28;20029;-62
2022/07/28 05:16:31;;;;;;;3.72;2.25;;;17.70;99.90;;;;;;5214102;28;20021;-62
2022/07/28 05:19:02;;;;;;;3.45;3.00;;;17.90;99.90;;;;;;5196350;28;20035;-61
2022/07/28 05:21:33;;;;;;;8.63;2.55;;;17.90;99.90;;;;;;5195499;28;20029;-62
2022/07/28 05:24:09;;;;;;;2.92;1.95;;;18.00;99.90;;;;;;5196163;28;20017;-62
2022/07/28 05:26:40;;;;;;;4.57;2.45;;;18.00;99.90;;;;;;5213818;28;20038;-62
2022/07/28 05:29:11;;;;;;;2.10;1.90;;;18.20;99.90;;;;;;5214180;28;20345;-62
2022/07/28 05:31:45;;;;;;;2.33;1.70;;;18.30;99.90;;;;;;5194478;28;20033;-61
2022/07/28 05:34:18;;;;;;;2.28;1.90;;;18.30;99.90;;;;;;5198442;28;20804;-63
2022/07/28 05:36:49;;;;;;;6.65;2.22;;;18.40;99.90;;;;;;5218061;28;20047;-62
2022/07/28 05:39:21;;;;;;;1.80;1.70;;;18.30;99.90;;;;;;5216373;28;20025;-63
2022/07/28 05:41:52;;;;;;;5.43;2.60;;;18.40;99.90;;;;;;5200107;28;20021;-62
2022/07/28 05:44:23;;;;;;;3.85;2.70;;;18.50;99.90;;;;;;5216234;28;20035;-62
2022/07/28 05:46:54;;;;;;;2.22;2.03;;;18.50;99.90;;;;;;5218098;28;20346;-62
2022/07/28 05:49:29;;;;;;;2.25;2.05;;;18.60;99.90;;;;;;5220006;28;20028;-62
2022/07/28 05:52:00;;;;;;;3.67;1.90;;;18.60;99.90;;;;;;5199266;28;20198;-61
2022/07/28 05:54:31;;;;;;;5.43;1.83;;;18.70;99.90;;;;;;5200080;28;20032;-62
2022/07/28 05:57:04;;;;;;;1.95;1.75;;;18.80;99.90;;;;;;5183165;28;20025;-62
2022/07/28 05:59:40;;;;;;;5.07;1.95;;;18.70;99.90;;;;;;5207428;28;20044;-61
2022/07/28 06:02:11;;;;;;;2.30;2.00;;;18.80;99.90;;;;;;5217006;28;20452;-61
2022/07/28 06:04:43;;;;;;;3.67;1.92;;;18.80;99.90;;;;;;5206537;28;20045;-62
2022/07/28 06:07:19;;;;;;;1.75;1.65;;;19.10;99.90;;;;;;5215310;28;20222;-62
2022/07/28 06:09:58;;;;;;;1.88;1.77;;;19.30;99.90;;;;;;5218194;28;20032;-62
2022/07/28 06:12:29;;;;;;;3.85;2.20;;;19.50;99.90;;;;;;5198635;28;20021;-62
2022/07/28 06:15:03;;;;;;;3.22;2.53;;;19.80;99.90;;;;;;5216433;28;20035;-62
2022/07/28 06:17:35;;;;;;;3.15;2.05;;;19.60;99.90;;;;;;5213194;28;20041;-62
2022/07/28 06:20:07;;;;;;;3.22;1.90;;;19.70;99.90;;;;;;5189916;28;20221;-62
2022/07/28 06:22:42;;;;;;;3.15;2.38;;;19.90;99.90;;;;;;5237546;28;20019;-62
2022/07/28 06:25:18;;;;;;;2.72;1.75;;;20.20;99.90;;;;;;5219096;28;20182;-62
2022/07/28 06:27:52;;;;;;;2.92;2.22;;;20.30;99.90;;;;;;5198764;28;20043;-62
2022/07/28 06:30:24;;;;;;;3.30;2.00;;;20.20;99.90;;;;;;5172108;28;20318;-63
2022/07/28 06:32:56;;;;;;;1.75;1.65;;;20.30;99.90;;;;;;5217953;28;20246;-62
2022/07/28 06:35:27;;;;;;;2.33;1.90;;;20.40;99.90;;;;;;5216771;28;20025;-63
2022/07/28 06:37:59;;;;;;;4.68;1.90;;;20.40;99.90;;;;;;5198459;28;20035;-63
2022/07/28 06:40:30;;;;;;;4.40;1.70;;;20.20;99.90;;;;;;5217991;28;20206;-63
2022/07/28 06:43:04;;;;;;;3.28;2.13;;;20.50;99.90;;;;;;5217104;28;20429;-63
2022/07/28 06:45:39;;;;;;;2.17;1.80;;;20.50;99.90;;;;;;5216371;28;20025;-63
2022/07/28 06:48:16;;;;;;;2.78;2.22;;;21.30;99.90;;;;;;5197898;28;20360;-63
2022/07/28 06:50:50;;;;;;;3.30;1.98;;;22.10;99.90;;;;;;5215821;28;20029;-63
2022/07/28 06:53:22;;;;;;;2.17;1.80;;;22.50;99.90;;;;;;5196684;28;20035;-62
2022/07/28 06:55:53;;;;;;;2.55;1.80;;;22.60;99.90;;;;;;5214656;28;20037;-62
2022/07/28 06:58:27;;;;;;;4.45;1.85;;;22.60;99.90;;;;;;5215240;28;20029;-62
2022/07/28 07:00:58;;;;;;;1.75;1.65;;;22.50;99.90;;;;;;5215655;28;20328;-62
2022/07/28 07:03:32;;;;;;;2.35;1.95;;;22.20;99.90;;;;;;5228150;28;20074;-61
2022/07/28 07:06:04;;;;;;;1.77;1.50;;;22.10;99.90;;;;;;5209621;28;20045;-62
2022/07/28 07:08:37;;;;;;;2.45;1.83;;;22.70;99.90;;;;;;5224589;28;20029;-63
2022/07/28 07:11:10;;;;;;;3.85;2.00;;;23.40;99.90;;;;;;5225864;28;20040;-62
2022/07/28 07:13:42;;;;;;;4.78;2.20;;;22.80;99.90;;;;;;5237235;28;20199;-61
2022/07/28 07:16:13;;;;;;;1.65;1.55;;;22.50;99.90;;;;;;5236667;28;20254;-62
2022/07/28 07:18:44;;;;;;;2.45;1.80;;;22.70;99.90;;;;;;5236265;28;20227;-62
2022/07/28 07:21:15;;;;;;;2.55;1.60;;;23.10;99.90;;;;;;5221981;28;20027;-62
2022/07/28 07:23:48;;;;;;;2.40;1.98;;;23.60;99.90;;;;;;5211598;28;20022;-63
2022/07/28 07:26:22;;;;;;;5.32;2.05;;;23.70;99.90;;;;;;5183784;28;20025;-63
2022/07/28 07:28:53;;;;;;;2.75;2.38;;;23.70;99.90;;;;;;5195855;28;20164;-63
2022/07/28 07:31:24;;;;;;;1.95;1.67;;;23.40;99.90;;;;;;5184852;28;20300;-63
2022/07/28 07:33:58;;;;;;;1.90;1.80;;;22.90;99.90;;;;;;5216248;28;20112;-62
2022/07/28 07:36:29;;;;;;;2.17;1.70;;;23.20;99.90;;;;;;5216400;28;20021;-62
2022/07/28 07:39:00;;;;;;;6.55;1.85;;;24.00;99.90;;;;;;5197405;28;20029;-62
2022/07/28 07:41:34;;;;;;;1.77;1.60;;;24.20;99.90;;;;;;5215396;28;20031;-62
2022/07/28 07:44:05;;;;;;;2.13;1.93;;;25.00;99.90;;;;;;5215624;28;20024;-62
2022/07/28 07:46:38;;;;;;;3.20;1.67;;;24.20;99.90;;;;;;5213596;28;20023;-63
2022/07/28 07:49:09;;;;;;;3.38;1.90;;;24.00;99.90;;;;;;5226876;28;20201;-62
2022/07/28 07:51:43;;;;;;;2.30;2.10;;;24.20;99.90;;;;;;5193843;28;20036;-63
2022/07/28 07:54:14;;;;;;;5.95;1.88;;;24.10;99.90;;;;;;5202912;28;20029;-63
2022/07/28 07:56:46;;;;;;;2.22;1.85;;;24.00;99.90;;;;;;5176057;28;20442;-63
2022/07/28 07:59:17;;;;;;;1.98;1.77;;;24.70;99.90;;;;;;5208910;28;20184;-63
2022/07/28 08:01:53;;;;;;;2.85;1.80;;;25.70;99.90;;;;;;5215282;28;20202;-62
2022/07/28 08:04:27;;;;;;;4.22;2.10;;;26.70;99.90;;;;;;5189892;28;20027;-63
2022/07/28 08:07:01;;;;;;;3.70;1.95;;;27.30;99.90;;;;;;5198728;28;20309;-64
2022/07/28 08:09:38;;;;;;;2.10;1.90;;;26.30;99.90;;;;;;5197455;28;20040;-62
2022/07/28 08:12:09;;;;;;;5.38;2.30;;;25.70;99.90;;;;;;5218466;28;20033;-62
2022/07/28 08:14:41;;;;;;;2.35;1.90;;;24.70;99.90;;;;;;5217258;28;20035;-62
2022/07/28 08:17:15;;;;;;;3.05;1.85;;;25.30;99.90;;;;;;5215987;28;20031;-63
2022/07/28 08:19:48;;;;;;;2.47;2.00;;;25.90;99.90;;;;;;5200329;28;20032;-62
2022/07/28 08:22:22;;;;;;;2.03;1.70;;;26.90;99.90;;;;;;5233263;28;20017;-63
2022/07/28 08:24:54;;;;;;;2.08;1.75;;;27.20;99.90;;;;;;5235218;28;20243;-62
2022/07/28 08:27:25;;;;;;;2.78;1.90;;;27.70;99.90;;;;;;5218039;28;20257;-61
2022/07/28 08:29:59;;;;;;;1.95;1.77;;;27.80;99.90;;;;;;5235825;28;20186;-63
2022/07/28 08:32:33;;;;;;;3.08;1.70;;;27.40;99.90;;;;;;5235694;28;20363;-62
2022/07/28 08:35:05;;;;;;;2.70;2.38;;;27.00;99.90;;;;;;5234980;28;20024;-63
2022/07/28 08:37:38;;;;;;;2.17;1.73;;;25.70;99.90;;;;;;5235387;28;20320;-62
2022/07/28 08:40:15;;;;;;;2.80;1.77;;;25.90;99.90;;;;;;5216817;28;20380;-62
2022/07/28 08:43:10;;;;;;;2.35;2.15;;;25.80;99.90;;;;;;5231054;28;20021;-62
2022/07/28 08:45:44;;;;;;;2.83;1.80;;;26.80;99.90;;;;;;5195525;28;20306;-63
2022/07/28 08:48:25;;;;;;;2.03;1.90;;;26.70;99.90;;;;;;5198092;28;20027;-62
2022/07/28 08:51:11;;;;;;;3.20;2.08;;;26.30;99.90;;;;;;5206348;28;20021;-62
2022/07/28 08:53:43;;;;;;;3.35;1.80;;;26.90;99.90;;;;;;5214086;28;20385;-62
2022/07/28 08:56:17;;;;;;;2.63;2.10;;;27.70;99.90;;;;;;5196644;28;20154;-61
2022/07/28 08:58:48;;;;;;;3.40;1.95;;;26.90;99.90;;;;;;5231800;28;20039;-62
2022/07/28 09:01:22;;;;;;;1.95;1.75;;;26.80;99.90;;;;;;5200719;28;20120;-62
2022/07/28 09:03:53;;;;;;;3.00;2.17;;;25.90;99.90;;;;;;5217563;28;20031;-62
2022/07/28 09:06:29;;;;;;;2.47;1.95;;;26.20;99.90;;;;;;5223645;28;20827;-62
2022/07/28 09:09:02;;;;;;;2.38;1.80;;;26.80;99.90;;;;;;5235614;28;20375;-63
2022/07/28 09:11:34;;;;;;;4.13;2.55;;;27.80;99.90;;;;;;5235535;28;20024;-62
2022/07/28 09:14:08;;;;;;;2.80;2.05;;;27.50;99.90;;;;;;5235750;28;20031;-64
2022/07/28 09:16:48;;;;;;;3.67;2.05;;;27.60;99.90;;;;;;5235440;28;20248;-62
2022/07/28 09:19:21;;;;;;;3.00;2.70;;;27.30;99.90;;;;;;5216758;28;20027;-62
2022/07/28 09:21:59;;;;;;;2.45;1.92;;;27.60;99.90;;;;;;5232061;28;20093;-63
2022/07/28 09:24:39;;;;;;;2.90;1.90;;;28.00;99.90;;;;;;5234184;28;20039;-62
2022/07/28 09:27:14;;;;;;;2.10;1.90;;;27.70;99.90;;;;;;5235473;28;20033;-63
2022/07/28 09:30:00;;;;;;;2.05;1.83;;;28.40;99.90;;;;;;5217255;28;20309;-63
2022/07/28 09:32:33;;;;;;;2.30;1.80;;;28.20;99.90;;;;;;5235080;28;20017;-63
2022/07/28 09:35:18;;;;;;;2.88;1.77;;;29.00;99.90;;;;;;5217804;28;20229;-62
2022/07/28 09:37:58;;;;;;;2.05;1.80;;;29.90;99.90;;;;;;5234668;28;20504;-63
2022/07/28 09:40:30;;;;;;;3.45;2.17;;;30.80;99.90;;;;;;5245745;28;20036;-62
2022/07/28 09:43:04;;;;;;;1.75;1.65;;;29.50;99.90;;;;;;5234284;28;20344;-63
2022/07/28 09:45:40;;;;;;;2.92;1.70;;;29.60;99.90;;;;;;5233871;28;20051;-62
2022/07/28 09:48:18;;;;;;;2.20;1.75;;;30.00;99.90;;;;;;5211457;28;20043;-63
2022/07/28 09:50:51;;;;;;;2.08;1.90;;;30.50;99.90;;;;;;5214349;28;20033;-64
2022/07/28 09:53:25;;;;;;;2.83;1.85;;;31.00;99.90;;;;;;5233160;28;20036;-63
2022/07/28 09:56:02;;;;;;;2.40;1.98;;;31.50;99.90;;;;;;5241809;28;20122;-63
2022/07/28 09:58:34;;;;;;;2.80;2.10;;;32.10;99.90;;;;;;5234527;28;20036;-62
2022/07/28 10:01:12;;;;;;;3.13;2.40;;;32.00;99.90;;;;;;5215536;28;20047;-62
2022/07/28 10:03:50;;;;;;;2.22;2.03;;;32.00;99.90;;;;;;5233729;28;20028;-62
2022/07/28 10:06:36;;;;;;;2.55;2.05;;;31.70;99.90;;;;;;5229125;28;20238;-62
2022/07/28 10:09:13;;;;;;;3.05;1.73;;;31.80;99.90;;;;;;5255273;28;20277;-62
2022/07/28 10:11:44;;;;;;;3.47;1.80;;;31.70;99.90;;;;;;5221587;28;20225;-62
2022/07/28 10:14:20;;;;;;;2.78;2.03;;;31.60;99.90;;;;;;5234411;28;20032;-62
2022/07/28 10:16:53;;;;;;;1.92;1.70;;;31.20;99.90;;;;;;5234674;28;20298;-62
2022/07/28 10:19:25;;;;;;;2.22;2.03;;;31.50;99.90;;;;;;5220079;28;20024;-64
2022/07/28 10:21:59;;;;;;;3.42;2.42;;;32.00;99.90;;;;;;5238281;28;20029;-62
2022/07/28 10:24:34;;;;;;;5.13;2.13;;;32.50;99.90;;;;;;5220005;28;20344;-64
2022/07/28 10:27:06;;;;;;;2.00;1.80;;;32.40;99.90;;;;;;5237896;28;20025;-63
2022/07/28 10:29:44;;;;;;;3.97;1.90;;;32.50;99.90;;;;;;5238684;28;20026;-64
2022/07/28 10:32:15;;;;;;;2.15;1.95;;;32.20;99.90;;;;;;5219686;28;20032;-62
2022/07/28 10:35:10;;;;;;;3.58;2.40;;;32.00;99.90;;;;;;5220093;28;20233;-62
2022/07/28 10:38:01;;;;;;;2.83;2.33;;;32.70;99.90;;;;;;5237670;28;20047;-63
2022/07/28 10:40:37;;;;;;;2.42;2.20;;;34.30;99.90;;;;;;5237979;28;20032;-63
2022/07/28 10:43:12;;;;;;;2.53;2.03;;;34.70;99.90;;;;;;5238171;28;20021;-63
2022/07/28 10:45:46;;;;;;;3.40;2.22;;;35.50;99.90;;;;;;5239360;28;20238;-62
2022/07/28 10:48:22;;;;;;;4.53;1.80;;;34.60;99.90;;;;;;5237414;28;20032;-62
2022/07/28 10:50:58;;;;;;;2.33;1.83;;;33.80;99.90;;;;;;5202482;28;20043;-62
2022/07/28 10:53:32;;;;;;;4.95;2.78;;;32.80;99.90;;;;;;5238447;28;20249;-63
2022/07/28 10:56:12;;;;;;;;;;;32.30;99.90;;;;;;5239000;28;20026;-62
2022/07/28 10:59:21;;;;;;;1.85;1.75;;;33.60;99.90;;;;;;5246399;28;19900;-63
2022/07/28 11:01:55;;;;;;;2.72;1.52;;;34.80;99.90;;;;;;5245754;28;20024;-62
2022/07/28 11:04:47;;;;;;;2.80;2.25;;;35.60;99.90;;;;;;5226327;28;20024;-62
2022/07/28 11:07:21;;;;;;;2.90;2.40;;;36.30;99.90;;;;;;5235660;28;20050;-62
2022/07/28 11:10:17;;;;;;;2.80;2.35;;;37.50;99.90;;;;;;5217606;28;20195;-62
2022/07/28 11:12:53;;;;;;;2.38;2.15;;;37.90;99.90;;;;;;5234895;28;20218;-62
2022/07/28 11:15:33;;;;;;;2.40;2.20;;;38.60;99.90;;;;;;5218405;28;20149;-64
2022/07/28 11:18:10;;;;;;;2.30;2.10;;;39.30;99.90;;;;;;5218297;28;20225;-62
2022/07/28 11:20:56;;;;;;;3.13;1.55;;;39.20;99.90;;;;;;5216718;28;20040;-62
2022/07/28 11:23:45;;;;;;;1.65;1.55;;;40.00;99.90;;;;;;5237295;28;20020;-63
2022/07/28 11:26:20;;;;;;;2.25;1.75;;;38.20;99.90;;;;;;5219446;28;20020;-62
2022/07/28 11:29:02;;;;;;;2.28;1.88;;;38.70;99.90;;;;;;5236898;28;20324;-62
2022/07/28 11:31:42;;;;;;;3.22;1.90;;;38.20;99.90;;;;;;5217673;28;20038;-62
2022/07/28 11:34:23;;;;;;;3.30;2.25;;;37.10;99.90;;;;;;5237136;28;20024;-62
2022/07/28 11:37:09;;;;;;;6.65;2.00;;;37.40;99.90;;;;;;5220986;28;20021;-63
2022/07/28 11:39:41;;;;;;;2.00;1.85;;;38.00;99.90;;;;;;5235115;28;20233;-63
2022/07/28 11:42:26;;;;;;;2.17;1.73;;;38.50;99.90;;;;;;5236594;28;20218;-63
2022/07/28 11:45:21;;;;;;;1.90;1.80;;;39.50;99.90;;;;;;5237452;28;20017;-62
2022/07/28 11:48:20;;;;;;;2.35;1.92;;;38.30;99.90;;;;;;5238333;28;20016;-63
2022/07/28 11:51:03;;;;;;;4.03;1.88;;;38.40;99.10;;;;;;5219144;28;20318;-62
2022/07/28 11:53:51;;;;;;;2.15;1.98;;;38.10;98.60;;;;;;5237869;28;20023;-62
2022/07/28 11:56:36;;;;;;;2.05;1.85;;;37.60;99.90;;;;;;5236674;28;20035;-63
2022/07/28 11:59:10;;;;;;;2.30;2.10;;;38.60;99.40;;;;;;5236714;28;20310;-61
2022/07/28 12:01:55;;;;;;;1.92;1.83;;;39.90;99.30;;;;;;5240560;28;20031;-62
2022/07/28 12:04:26;;;;;;;1.75;1.65;;;37.80;98.00;;;;;;5233623;28;20250;-62
2022/07/28 12:06:58;;;;;;;2.72;2.00;;;39.00;98.70;;;;;;5233977;28;20047;-63
2022/07/28 12:09:32;;;;;;;2.20;1.60;;;39.90;97.50;;;;;;5236320;28;20316;-61
2022/07/28 12:12:08;;;;;;;3.83;1.50;;;39.90;96.40;;;;;;5235376;28;20028;-62
2022/07/28 12:14:39;;;;;;;1.83;1.40;;;40.70;95.70;;;;;;5235801;28;20035;-63
2022/07/28 12:17:13;;;;;;;2.30;2.10;;;41.60;96.20;;;;;;5236677;28;20047;-62
2022/07/28 12:19:47;;;;;;;1.60;1.50;;;41.30;94.80;;;;;;5231936;28;20348;-63
2022/07/28 12:22:22;;;;;;;2.03;1.92;;;41.40;95.50;;;;;;5235273;28;20036;-64
2022/07/28 12:24:56;;;;;;;1.83;1.73;;;41.00;94.40;;;;;;5235986;28;20288;-61
2022/07/28 12:27:30;;;;;;;;;;;40.50;93.80;;;;;;5236880;28;20030;-63
2022/07/28 12:30:04;;;;;;;2.65;1.60;;;39.80;94.50;;;;;;5236447;28;19991;-62
2022/07/28 12:32:35;;;;;;;2.03;1.50;;;39.40;95.10;;;;;;5235936;28;20039;-62
2022/07/28 12:35:11;;;;;;;1.85;1.73;;;39.60;94.90;;;;;;5200808;28;20355;-61
2022/07/28 12:37:46;;;;;;;1.95;1.77;;;39.80;94.40;;;;;;5238173;28;20019;-62
2022/07/28 12:40:21;;;;;;;2.08;1.52;;;38.50;94.10;;;;;;5214943;28;20219;-63
2022/07/28 12:42:52;;;;;;;1.70;1.60;;;38.60;95.40;;;;;;5226056;28;20087;-65
2022/07/28 12:45:25;;;;;;;1.95;1.50;;;39.90;94.80;;;;;;5235827;28;20363;-62
2022/07/28 12:48:07;;;;;;;1.67;1.58;;;40.90;93.70;;;;;;5217507;28;20322;-64
2022/07/28 12:50:39;;;;;;;2.00;1.70;;;41.70;93.00;;;;;;5236388;28;20028;-62
2022/07/28 12:53:16;;;;;;;1.63;1.52;;;41.10;93.20;;;;;;5201694;28;20489;-62
2022/07/28 12:56:00;;;;;;;1.70;1.60;;;41.00;93.40;;;;;;5235368;28;20325;-62
2022/07/28 12:58:33;;;;;;;1.75;1.63;;;40.90;92.40;;;;;;5235346;28;20040;-62
2022/07/28 13:01:07;;;;;;;2.17;1.70;;;39.80;93.10;;;;;;5236200;28;20111;-62
2022/07/28 13:03:47;;;;;;;1.98;1.50;;;37.70;93.80;;;;;;5236038;28;20016;-64
2022/07/28 13:06:21;;;;;;;1.60;1.50;;;37.70;93.90;;;;;;5224878;28;20344;-61
2022/07/28 13:08:53;;;;;;;1.60;1.50;;;37.80;93.30;;;;;;5237050;28;20330;-62
2022/07/28 13:11:29;;;;;;;1.55;1.40;;;38.30;93.70;;;;;;5235203;28;20034;-61
2022/07/28 13:14:03;;;;;;;2.10;1.50;;;38.70;93.00;;;;;;5236672;28;20020;-61
2022/07/28 13:16:35;;;;;;;2.20;1.80;;;39.60;93.00;;;;;;5217710;28;20039;-63
2022/07/28 13:19:08;;;;;;;1.33;1.23;;;40.60;92.40;;;;;;5232848;28;20241;-63
2022/07/28 13:21:45;;;;;;;1.67;1.50;;;41.00;91.40;;;;;;5216484;28;20037;-62
2022/07/28 13:24:18;;;;;;;1.95;1.75;;;40.70;91.80;;;;;;5234589;28;20186;-62
2022/07/28 13:26:52;;;;;;;1.70;1.60;;;38.90;91.90;;;;;;5236370;28;20034;-62
2022/07/28 13:29:23;;;;;;;;;;;39.00;92.40;;;;;;5216931;28;20030;-64
2022/07/28 13:31:57;;;;;;;1.52;1.42;;;38.40;92.90;;;;;;5233997;28;20086;-63